sensor_id;sensor_type;location;lat;lon;timestamp;pressure;altitude;pressure_sealevel;temperature;humidity
11692;BME280;33659;42.672;23.354;2022-12-10T00:01:40;93714.00;;;10.18;77.97
11692;BME280;33659;42.672;23.354;2022-12-10T00:04:08;93727.31;;;10.29;77.69
11692;BME280;33659;42.672;23.354;2022-12-10T00:06:36;93709.47;;;10.31;77.55
11692;BME280;33659;42.672;23.354;2022-12-10T00:09:04;93732.97;;;10.31;77.82
11692;BME280;33659;42.672;23.354;2022-12-10T00:11:31;93720.75;;;10.19;78.05
11692;BME280;33659;42.672;23.354;2022-12-10T00:14:00;93735.13;;;10.13;78.64
11692;BME280;33659;42.672;23.354;2022-12-10T00:16:28;93724.44;;;10.18;78.46
11692;BME280;33659;42.672;23.354;2022-12-10T00:18:56;93710.47;;;10.26;78.13
11692;BME280;33659;42.672;23.354;2022-12-10T00:21:24;93701.69;;;10.35;77.66
11692;BME280;33659;42.672;23.354;2022-12-10T00:23:51;93694.00;;;10.42;77.66
11692;BME280;33659;42.672;23.354;2022-12-10T00:26:19;93691.16;;;10.47;76.88
11692;BME280;33659;42.672;23.354;2022-12-10T00:28:46;93697.97;;;10.51;77.04
11692;BME280;33659;42.672;23.354;2022-12-10T00:31:16;93711.13;;;10.39;77.38
11692;BME280;33659;42.672;23.354;2022-12-10T00:33:44;93707.41;;;10.40;77.56
11692;BME280;33659;42.672;23.354;2022-12-10T00:36:12;93701.44;;;10.40;77.18
11692;BME280;33659;42.672;23.354;2022-12-10T00:38:40;93694.44;;;10.44;77.11
11692;BME280;33659;42.672;23.354;2022-12-10T00:41:07;93717.09;;;10.40;77.35
11692;BME280;33659;42.672;23.354;2022-12-10T00:43:34;93722.16;;;10.33;77.52
11692;BME280;33659;42.672;23.354;2022-12-10T00:46:01;93700.03;;;10.26;77.67
11692;BME280;33659;42.672;23.354;2022-12-10T00:48:30;93699.03;;;10.31;77.50
11692;BME280;33659;42.672;23.354;2022-12-10T00:50:58;93705.75;;;10.32;77.69
11692;BME280;33659;42.672;23.354;2022-12-10T00:53:26;93708.28;;;10.28;77.61
11692;BME280;33659;42.672;23.354;2022-12-10T00:55:53;93709.53;;;10.35;77.25
11692;BME280;33659;42.672;23.354;2022-12-10T00:58:20;93726.53;;;10.28;77.82
11692;BME280;33659;42.672;23.354;2022-12-10T01:00:47;93710.31;;;10.19;78.18
11692;BME280;33659;42.672;23.354;2022-12-10T01:03:15;93701.78;;;10.22;78.38
11692;BME280;33659;42.672;23.354;2022-12-10T01:05:43;93753.81;;;10.15;78.48
11692;BME280;33659;42.672;23.354;2022-12-10T01:08:10;93714.78;;;10.03;79.19
11692;BME280;33659;42.672;23.354;2022-12-10T01:10:36;93687.94;;;10.02;79.46
11692;BME280;33659;42.672;23.354;2022-12-10T01:13:04;93699.22;;;10.07;79.21
11692;BME280;33659;42.672;23.354;2022-12-10T01:15:31;93708.91;;;9.90;79.85
11692;BME280;33659;42.672;23.354;2022-12-10T01:17:57;93697.22;;;9.84;80.61
11692;BME280;33659;42.672;23.354;2022-12-10T01:20:24;93703.13;;;9.81;80.49
11692;BME280;33659;42.672;23.354;2022-12-10T01:22:52;93689.41;;;9.84;80.57
11692;BME280;33659;42.672;23.354;2022-12-10T01:25:19;93690.66;;;9.90;80.47
11692;BME280;33659;42.672;23.354;2022-12-10T01:27:45;93695.22;;;9.93;80.71
11692;BME280;33659;42.672;23.354;2022-12-10T01:30:12;93701.78;;;9.87;80.66
11692;BME280;33659;42.672;23.354;2022-12-10T01:32:39;93684.28;;;9.88;80.91
11692;BME280;33659;42.672;23.354;2022-12-10T01:35:06;93688.47;;;9.92;81.00
11692;BME280;33659;42.672;23.354;2022-12-10T01:37:33;93661.09;;;10.02;80.58
11692;BME280;33659;42.672;23.354;2022-12-10T01:40:01;93678.88;;;9.96;80.00
11692;BME280;33659;42.672;23.354;2022-12-10T01:42:28;93689.59;;;10.11;80.01
11692;BME280;33659;42.672;23.354;2022-12-10T01:45:08;93668.66;;;10.23;79.79
11692;BME280;33659;42.672;23.354;2022-12-10T01:47:35;93693.72;;;10.27;79.03
11692;BME280;33659;42.672;23.354;2022-12-10T01:50:03;93682.19;;;10.28;79.51
11692;BME280;33659;42.672;23.354;2022-12-10T01:52:30;93681.16;;;10.33;79.20
11692;BME280;33659;42.672;23.354;2022-12-10T01:54:56;93686.53;;;10.40;78.98
11692;BME280;33659;42.672;23.354;2022-12-10T01:57:26;93685.88;;;10.43;78.67
11692;BME280;33659;42.672;23.354;2022-12-10T01:59:56;93667.03;;;10.53;78.06
11692;BME280;33659;42.672;23.354;2022-12-10T02:02:36;93687.56;;;10.55;78.33
11692;BME280;33659;42.672;23.354;2022-12-10T02:05:15;93659.06;;;10.46;78.36
11692;BME280;33659;42.672;23.354;2022-12-10T02:07:59;93682.44;;;10.58;78.00
11692;BME280;33659;42.672;23.354;2022-12-10T02:10:40;93661.28;;;10.64;77.74
11692;BME280;33659;42.672;23.354;2022-12-10T02:13:15;93680.31;;;10.64;78.06
11692;BME280;33659;42.672;23.354;2022-12-10T02:15:47;93695.97;;;10.64;77.92
11692;BME280;33659;42.672;23.354;2022-12-10T02:18:20;93706.75;;;10.63;78.19
11692;BME280;33659;42.672;23.354;2022-12-10T02:20:49;93691.84;;;10.44;78.42
11692;BME280;33659;42.672;23.354;2022-12-10T02:23:22;93664.50;;;10.38;79.02
11692;BME280;33659;42.672;23.354;2022-12-10T02:25:56;93685.44;;;10.41;78.87
11692;BME280;33659;42.672;23.354;2022-12-10T02:28:34;93628.84;;;10.26;79.02
11692;BME280;33659;42.672;23.354;2022-12-10T02:31:05;93628.91;;;10.29;78.72
11692;BME280;33659;42.672;23.354;2022-12-10T02:33:33;93655.50;;;10.54;79.04
11692;BME280;33659;42.672;23.354;2022-12-10T02:36:02;93649.50;;;10.54;78.78
11692;BME280;33659;42.672;23.354;2022-12-10T02:38:31;93655.22;;;10.60;78.85
11692;BME280;33659;42.672;23.354;2022-12-10T02:41:01;93683.03;;;10.52;78.98
11692;BME280;33659;42.672;23.354;2022-12-10T02:43:29;93653.97;;;10.53;78.85
11692;BME280;33659;42.672;23.354;2022-12-10T02:45:57;93644.03;;;10.59;79.04
11692;BME280;33659;42.672;23.354;2022-12-10T02:48:27;93649.66;;;10.61;78.96
11692;BME280;33659;42.672;23.354;2022-12-10T02:50:54;93649.72;;;10.65;78.93
11692;BME280;33659;42.672;23.354;2022-12-10T02:53:21;93643.53;;;10.73;78.54
11692;BME280;33659;42.672;23.354;2022-12-10T02:56:01;93643.59;;;10.76;78.36
11692;BME280;33659;42.672;23.354;2022-12-10T02:58:40;93637.97;;;10.74;78.60
11692;BME280;33659;42.672;23.354;2022-12-10T03:01:17;93653.31;;;10.76;78.81
11692;BME280;33659;42.672;23.354;2022-12-10T03:03:55;93663.75;;;10.76;78.69
11692;BME280;33659;42.672;23.354;2022-12-10T03:06:27;93648.09;;;10.76;78.65
11692;BME280;33659;42.672;23.354;2022-12-10T03:09:00;93649.38;;;10.85;78.37
11692;BME280;33659;42.672;23.354;2022-12-10T03:11:30;93633.84;;;10.73;78.03
11692;BME280;33659;42.672;23.354;2022-12-10T03:14:00;93657.59;;;10.88;78.38
11692;BME280;33659;42.672;23.354;2022-12-10T03:16:33;93656.78;;;10.83;78.14
11692;BME280;33659;42.672;23.354;2022-12-10T03:19:05;93656.38;;;10.81;78.35
11692;BME280;33659;42.672;23.354;2022-12-10T03:21:33;93654.19;;;10.83;78.51
11692;BME280;33659;42.672;23.354;2022-12-10T03:24:02;93633.78;;;10.89;78.31
11692;BME280;33659;42.672;23.354;2022-12-10T03:26:30;93636.66;;;10.84;78.29
11692;BME280;33659;42.672;23.354;2022-12-10T03:29:02;93645.13;;;10.77;78.80
11692;BME280;33659;42.672;23.354;2022-12-10T03:31:31;93661.31;;;10.87;78.34
11692;BME280;33659;42.672;23.354;2022-12-10T03:34:02;93665.03;;;10.85;78.44
11692;BME280;33659;42.672;23.354;2022-12-10T03:36:30;93654.38;;;10.75;78.82
11692;BME280;33659;42.672;23.354;2022-12-10T03:38:58;93629.16;;;10.82;78.63
11692;BME280;33659;42.672;23.354;2022-12-10T03:41:25;93634.78;;;10.84;78.98
11692;BME280;33659;42.672;23.354;2022-12-10T03:43:53;93641.41;;;10.78;79.10
11692;BME280;33659;42.672;23.354;2022-12-10T03:46:21;93636.66;;;10.84;79.15
11692;BME280;33659;42.672;23.354;2022-12-10T03:48:48;93630.81;;;10.91;78.83
11692;BME280;33659;42.672;23.354;2022-12-10T03:51:16;93643.97;;;10.98;78.76
11692;BME280;33659;42.672;23.354;2022-12-10T03:53:42;93638.75;;;10.98;78.83
11692;BME280;33659;42.672;23.354;2022-12-10T03:56:09;93628.66;;;10.96;79.22
11692;BME280;33659;42.672;23.354;2022-12-10T03:58:36;93630.06;;;10.90;79.71
11692;BME280;33659;42.672;23.354;2022-12-10T04:01:03;93616.16;;;10.86;79.88
11692;BME280;33659;42.672;23.354;2022-12-10T04:03:30;93621.16;;;10.95;80.28
11692;BME280;33659;42.672;23.354;2022-12-10T04:06:01;93629.06;;;10.98;79.95
11692;BME280;33659;42.672;23.354;2022-12-10T04:08:29;93624.19;;;10.97;79.94
11692;BME280;33659;42.672;23.354;2022-12-10T04:11:02;93626.44;;;10.98;79.94
11692;BME280;33659;42.672;23.354;2022-12-10T04:13:31;93608.53;;;10.97;80.08
11692;BME280;33659;42.672;23.354;2022-12-10T04:16:16;93623.75;;;10.95;80.27
11692;BME280;33659;42.672;23.354;2022-12-10T04:18:56;93615.94;;;10.95;80.60
11692;BME280;33659;42.672;23.354;2022-12-10T04:21:24;93621.16;;;10.95;80.49
11692;BME280;33659;42.672;23.354;2022-12-10T04:24:11;93626.31;;;10.91;81.04
11692;BME280;33659;42.672;23.354;2022-12-10T04:26:56;93621.03;;;10.88;81.58
11692;BME280;33659;42.672;23.354;2022-12-10T04:29:24;93616.78;;;10.79;82.35
11692;BME280;33659;42.672;23.354;2022-12-10T04:31:52;93627.47;;;10.71;82.77
11692;BME280;33659;42.672;23.354;2022-12-10T04:34:19;93640.09;;;10.69;83.28
11692;BME280;33659;42.672;23.354;2022-12-10T04:36:46;93638.94;;;10.66;83.85
11692;BME280;33659;42.672;23.354;2022-12-10T04:39:15;93638.53;;;10.64;83.76
11692;BME280;33659;42.672;23.354;2022-12-10T04:41:44;93631.84;;;10.67;84.39
11692;BME280;33659;42.672;23.354;2022-12-10T04:44:11;93623.34;;;10.70;84.37
11692;BME280;33659;42.672;23.354;2022-12-10T04:46:38;93615.97;;;10.75;84.66
11692;BME280;33659;42.672;23.354;2022-12-10T04:49:06;93637.63;;;10.76;84.83
11692;BME280;33659;42.672;23.354;2022-12-10T04:51:32;93650.47;;;10.65;85.55
11692;BME280;33659;42.672;23.354;2022-12-10T04:53:59;93648.00;;;10.53;86.03
11692;BME280;33659;42.672;23.354;2022-12-10T04:56:28;93631.94;;;10.51;86.37
11692;BME280;33659;42.672;23.354;2022-12-10T04:58:55;93608.03;;;10.29;86.66
11692;BME280;33659;42.672;23.354;2022-12-10T05:01:22;93638.06;;;10.58;86.13
11692;BME280;33659;42.672;23.354;2022-12-10T05:03:49;93637.66;;;10.56;86.70
11692;BME280;33659;42.672;23.354;2022-12-10T05:06:17;93657.00;;;10.55;86.88
11692;BME280;33659;42.672;23.354;2022-12-10T05:08:44;93633.84;;;10.35;87.25
11692;BME280;33659;42.672;23.354;2022-12-10T05:11:13;93640.53;;;10.51;87.15
11692;BME280;33659;42.672;23.354;2022-12-10T05:13:42;93630.22;;;10.58;87.24
11692;BME280;33659;42.672;23.354;2022-12-10T05:16:11;93641.13;;;10.64;86.95
11692;BME280;33659;42.672;23.354;2022-12-10T05:18:38;93648.13;;;10.60;87.04
11692;BME280;33659;42.672;23.354;2022-12-10T05:21:06;93633.50;;;10.55;87.30
11692;BME280;33659;42.672;23.354;2022-12-10T05:23:36;93629.38;;;10.54;87.70
11692;BME280;33659;42.672;23.354;2022-12-10T05:26:04;93621.28;;;10.60;87.62
11692;BME280;33659;42.672;23.354;2022-12-10T05:28:32;93611.81;;;10.71;87.37
11692;BME280;33659;42.672;23.354;2022-12-10T05:31:01;93611.16;;;10.77;87.04
11692;BME280;33659;42.672;23.354;2022-12-10T05:33:29;93610.00;;;10.75;87.01
11692;BME280;33659;42.672;23.354;2022-12-10T05:35:58;93616.13;;;10.63;87.85
11692;BME280;33659;42.672;23.354;2022-12-10T05:38:26;93627.66;;;10.62;88.11
11692;BME280;33659;42.672;23.354;2022-12-10T05:40:54;93630.34;;;10.66;88.24
11692;BME280;33659;42.672;23.354;2022-12-10T05:43:21;93624.41;;;10.69;88.15
11692;BME280;33659;42.672;23.354;2022-12-10T05:45:47;93626.88;;;10.81;87.49
11692;BME280;33659;42.672;23.354;2022-12-10T05:48:15;93633.00;;;10.89;87.09
11692;BME280;33659;42.672;23.354;2022-12-10T05:50:42;93648.81;;;10.96;87.06
11692;BME280;33659;42.672;23.354;2022-12-10T05:53:09;93655.94;;;10.99;86.59
11692;BME280;33659;42.672;23.354;2022-12-10T05:55:39;93645.09;;;10.97;86.43
11692;BME280;33659;42.672;23.354;2022-12-10T05:58:05;93638.88;;;11.05;86.13
11692;BME280;33659;42.672;23.354;2022-12-10T06:00:32;93643.81;;;11.10;86.25
11692;BME280;33659;42.672;23.354;2022-12-10T06:02:59;93646.91;;;11.16;85.94
11692;BME280;33659;42.672;23.354;2022-12-10T06:05:27;93641.69;;;11.16;85.92
11692;BME280;33659;42.672;23.354;2022-12-10T06:07:53;93650.69;;;11.18;85.84
11692;BME280;33659;42.672;23.354;2022-12-10T06:10:20;93664.13;;;11.20;86.27
11692;BME280;33659;42.672;23.354;2022-12-10T06:12:47;93656.38;;;11.24;86.43
11692;BME280;33659;42.672;23.354;2022-12-10T06:15:13;93661.25;;;11.25;86.38
11692;BME280;33659;42.672;23.354;2022-12-10T06:17:40;93649.28;;;11.24;87.09
11692;BME280;33659;42.672;23.354;2022-12-10T06:20:08;93641.84;;;11.26;87.05
11692;BME280;33659;42.672;23.354;2022-12-10T06:22:36;93646.31;;;11.03;88.51
11692;BME280;33659;42.672;23.354;2022-12-10T06:25:03;93669.84;;;10.83;89.01
11692;BME280;33659;42.672;23.354;2022-12-10T06:27:30;93655.13;;;10.75;90.04
11692;BME280;33659;42.672;23.354;2022-12-10T06:29:57;93629.84;;;10.79;90.00
11692;BME280;33659;42.672;23.354;2022-12-10T06:32:24;93635.91;;;10.83;90.15
11692;BME280;33659;42.672;23.354;2022-12-10T06:34:51;93633.78;;;10.89;89.85
11692;BME280;33659;42.672;23.354;2022-12-10T06:37:18;93618.13;;;10.93;89.83
11692;BME280;33659;42.672;23.354;2022-12-10T06:39:46;93600.63;;;10.93;89.64
11692;BME280;33659;42.672;23.354;2022-12-10T06:42:12;93623.22;;;11.05;89.20
11692;BME280;33659;42.672;23.354;2022-12-10T06:44:39;93631.44;;;11.07;89.06
11692;BME280;33659;42.672;23.354;2022-12-10T06:47:06;93643.81;;;11.10;89.02
11692;BME280;33659;42.672;23.354;2022-12-10T06:49:32;93638.31;;;11.15;89.19
11692;BME280;33659;42.672;23.354;2022-12-10T06:51:59;93641.69;;;11.16;89.06
11692;BME280;33659;42.672;23.354;2022-12-10T06:54:26;93640.19;;;11.15;89.24
11692;BME280;33659;42.672;23.354;2022-12-10T06:56:54;93654.47;;;11.21;89.03
11692;BME280;33659;42.672;23.354;2022-12-10T06:59:20;93672.81;;;11.24;88.61
11692;BME280;33659;42.672;23.354;2022-12-10T07:01:47;93682.16;;;11.25;88.20
11692;BME280;33659;42.672;23.354;2022-12-10T07:04:14;93669.91;;;11.29;87.86
11692;BME280;33659;42.672;23.354;2022-12-10T07:06:41;93648.72;;;11.34;87.39
11692;BME280;33659;42.672;23.354;2022-12-10T07:09:07;93647.31;;;11.41;87.21
11692;BME280;33659;42.672;23.354;2022-12-10T07:11:35;93655.56;;;11.43;87.01
11692;BME280;33659;42.672;23.354;2022-12-10T07:14:03;93673.47;;;11.41;86.96
11692;BME280;33659;42.672;23.354;2022-12-10T07:16:31;93664.44;;;11.38;87.25
11692;BME280;33659;42.672;23.354;2022-12-10T07:19:00;93656.88;;;11.33;87.84
11692;BME280;33659;42.672;23.354;2022-12-10T07:21:28;93665.84;;;11.32;88.12
11692;BME280;33659;42.672;23.354;2022-12-10T07:23:59;93645.56;;;11.25;88.25
11692;BME280;33659;42.672;23.354;2022-12-10T07:26:29;93641.19;;;11.33;87.78
11692;BME280;33659;42.672;23.354;2022-12-10T07:28:56;93621.25;;;11.21;88.14
11692;BME280;33659;42.672;23.354;2022-12-10T07:31:25;93622.75;;;11.22;88.79
11692;BME280;33659;42.672;23.354;2022-12-10T07:33:53;93626.59;;;11.28;88.84
11692;BME280;33659;42.672;23.354;2022-12-10T07:36:21;93631.81;;;11.28;88.79
11692;BME280;33659;42.672;23.354;2022-12-10T07:38:49;93630.94;;;11.21;88.92
11692;BME280;33659;42.672;23.354;2022-12-10T07:41:16;93615.59;;;11.19;89.33
11692;BME280;33659;42.672;23.354;2022-12-10T07:43:44;93611.09;;;11.16;89.50
11692;BME280;33659;42.672;23.354;2022-12-10T07:46:13;93629.66;;;11.11;89.61
11692;BME280;33659;42.672;23.354;2022-12-10T07:48:42;93636.03;;;10.91;91.13
11692;BME280;33659;42.672;23.354;2022-12-10T07:51:09;93636.56;;;10.80;91.98
11692;BME280;33659;42.672;23.354;2022-12-10T07:53:36;93632.53;;;10.83;92.54
11692;BME280;33659;42.672;23.354;2022-12-10T07:56:04;93637.13;;;10.90;92.03
11692;BME280;33659;42.672;23.354;2022-12-10T07:58:32;93624.66;;;11.02;91.70
11692;BME280;33659;42.672;23.354;2022-12-10T08:00:58;93619.91;;;11.08;91.04
11692;BME280;33659;42.672;23.354;2022-12-10T08:03:25;93615.84;;;11.10;90.91
11692;BME280;33659;42.672;23.354;2022-12-10T08:06:01;93607.00;;;11.19;91.20
11692;BME280;33659;42.672;23.354;2022-12-10T08:08:28;93591.53;;;11.33;90.46
11692;BME280;33659;42.672;23.354;2022-12-10T08:10:55;93584.88;;;11.35;89.90
11692;BME280;33659;42.672;23.354;2022-12-10T08:13:21;93603.00;;;11.48;89.40
11692;BME280;33659;42.672;23.354;2022-12-10T08:15:48;93610.84;;;11.48;89.30
11692;BME280;33659;42.672;23.354;2022-12-10T08:18:15;93597.47;;;11.53;89.24
11692;BME280;33659;42.672;23.354;2022-12-10T08:20:41;93607.31;;;11.63;89.15
11692;BME280;33659;42.672;23.354;2022-12-10T08:23:09;93609.72;;;11.75;88.23
11692;BME280;33659;42.672;23.354;2022-12-10T08:25:36;93606.56;;;11.85;88.00
11692;BME280;33659;42.672;23.354;2022-12-10T08:28:03;93600.31;;;11.93;87.68
11692;BME280;33659;42.672;23.354;2022-12-10T08:30:30;93593.69;;;12.03;87.39
11692;BME280;33659;42.672;23.354;2022-12-10T08:32:57;93601.22;;;12.08;86.94
11692;BME280;33659;42.672;23.354;2022-12-10T08:35:24;93588.44;;;12.03;86.49
11692;BME280;33659;42.672;23.354;2022-12-10T08:37:51;93584.78;;;12.08;86.38
11692;BME280;33659;42.672;23.354;2022-12-10T08:40:19;93584.78;;;12.08;86.76
11692;BME280;33659;42.672;23.354;2022-12-10T08:42:45;93598.25;;;12.10;87.05
11692;BME280;33659;42.672;23.354;2022-12-10T08:45:12;93594.63;;;12.18;87.16
11692;BME280;33659;42.672;23.354;2022-12-10T08:47:39;93578.22;;;12.21;86.46
11692;BME280;33659;42.672;23.354;2022-12-10T08:50:06;93568.94;;;12.27;86.06
11692;BME280;33659;42.672;23.354;2022-12-10T08:52:32;93571.94;;;12.29;85.74
11692;BME280;33659;42.672;23.354;2022-12-10T08:54:59;93571.69;;;12.38;85.69
11692;BME280;33659;42.672;23.354;2022-12-10T08:57:27;93556.00;;;12.41;85.72
11692;BME280;33659;42.672;23.354;2022-12-10T08:59:54;93555.31;;;12.48;85.24
11692;BME280;33659;42.672;23.354;2022-12-10T09:02:20;93558.38;;;12.54;85.23
11692;BME280;33659;42.672;23.354;2022-12-10T09:04:47;93559.09;;;12.51;85.18
11692;BME280;33659;42.672;23.354;2022-12-10T09:07:14;93574.44;;;12.52;85.41
11692;BME280;33659;42.672;23.354;2022-12-10T09:09:41;93568.47;;;12.55;85.54
11692;BME280;33659;42.672;23.354;2022-12-10T09:12:08;93560.34;;;12.64;85.44
11692;BME280;33659;42.672;23.354;2022-12-10T09:14:36;93548.78;;;12.68;85.13
11692;BME280;33659;42.672;23.354;2022-12-10T09:17:05;93539.91;;;12.80;84.54
11692;BME280;33659;42.672;23.354;2022-12-10T09:19:32;93548.63;;;12.91;83.88
11692;BME280;33659;42.672;23.354;2022-12-10T09:21:59;93544.19;;;12.95;83.80
11692;BME280;33659;42.672;23.354;2022-12-10T09:24:26;93520.41;;;12.74;83.86
11692;BME280;33659;42.672;23.354;2022-12-10T09:26:53;93552.47;;;13.01;83.50
11692;BME280;33659;42.672;23.354;2022-12-10T09:29:19;93555.91;;;13.09;83.33
11692;BME280;33659;42.672;23.354;2022-12-10T09:31:51;93541.31;;;13.11;83.11
11692;BME280;33659;42.672;23.354;2022-12-10T09:34:18;93544.03;;;13.22;83.19
11692;BME280;33659;42.672;23.354;2022-12-10T09:36:45;93533.59;;;13.29;82.52
11692;BME280;33659;42.672;23.354;2022-12-10T09:39:11;93522.38;;;13.32;82.15
11692;BME280;33659;42.672;23.354;2022-12-10T09:42:00;93517.25;;;13.46;81.73
11692;BME280;33659;42.672;23.354;2022-12-10T09:44:38;93509.78;;;13.55;81.44
11692;BME280;33659;42.672;23.354;2022-12-10T09:47:10;93502.72;;;13.63;81.49
11692;BME280;33659;42.672;23.354;2022-12-10T09:49:46;93502.41;;;13.72;81.02
11692;BME280;33659;42.672;23.354;2022-12-10T09:52:18;93491.56;;;13.84;80.85
11692;BME280;33659;42.672;23.354;2022-12-10T09:54:48;93498.00;;;13.97;79.93
11692;BME280;33659;42.672;23.354;2022-12-10T09:57:20;93501.03;;;14.06;80.03
11692;BME280;33659;42.672;23.354;2022-12-10T09:59:48;93496.59;;;14.28;78.97
11692;BME280;33659;42.672;23.354;2022-12-10T10:02:21;93498.56;;;14.49;78.68
11692;BME280;33659;42.672;23.354;2022-12-10T10:04:49;93496.34;;;14.90;77.66
11692;BME280;33659;42.672;23.354;2022-12-10T10:07:19;93493.72;;;15.23;76.33
11692;BME280;33659;42.672;23.354;2022-12-10T10:09:47;93485.38;;;15.56;75.10
11692;BME280;33659;42.672;23.354;2022-12-10T10:12:15;93479.66;;;15.90;73.91
11692;BME280;33659;42.672;23.354;2022-12-10T10:14:43;93485.53;;;16.22;72.82
11692;BME280;33659;42.672;23.354;2022-12-10T10:17:15;93497.09;;;16.50;71.84
11692;BME280;33659;42.672;23.354;2022-12-10T10:19:44;93496.72;;;16.48;70.28
11692;BME280;33659;42.672;23.354;2022-12-10T10:22:11;93499.03;;;16.39;70.52
11692;BME280;33659;42.672;23.354;2022-12-10T10:24:41;93492.66;;;16.33;70.52
11692;BME280;33659;42.672;23.354;2022-12-10T10:27:13;93483.75;;;16.05;71.13
11692;BME280;33659;42.672;23.354;2022-12-10T10:29:43;93484.94;;;15.90;71.75
11692;BME280;33659;42.672;23.354;2022-12-10T10:32:13;93475.59;;;15.78;72.24
11692;BME280;33659;42.672;23.354;2022-12-10T10:34:40;93459.44;;;15.58;72.99
11692;BME280;33659;42.672;23.354;2022-12-10T10:37:15;93447.44;;;15.54;73.11
11692;BME280;33659;42.672;23.354;2022-12-10T10:39:47;93444.81;;;15.50;73.00
11692;BME280;33659;42.672;23.354;2022-12-10T10:42:34;93450.06;;;15.54;72.24
11692;BME280;33659;42.672;23.354;2022-12-10T10:45:02;93441.47;;;15.35;73.01
11692;BME280;33659;42.672;23.354;2022-12-10T10:47:31;93448.25;;;15.18;73.61
11692;BME280;33659;42.672;23.354;2022-12-10T10:49:59;93452.41;;;15.05;74.33
11692;BME280;33659;42.672;23.354;2022-12-10T10:52:29;93446.03;;;14.92;74.50
11692;BME280;33659;42.672;23.354;2022-12-10T10:54:56;93447.16;;;14.95;74.68
11692;BME280;33659;42.672;23.354;2022-12-10T10:57:25;93432.50;;;14.97;74.97
11692;BME280;33659;42.672;23.354;2022-12-10T10:59:56;93432.88;;;14.99;74.91
11692;BME280;33659;42.672;23.354;2022-12-10T11:02:29;93434.00;;;15.02;75.00
11692;BME280;33659;42.672;23.354;2022-12-10T11:04:56;93435.88;;;15.05;74.95
11692;BME280;33659;42.672;23.354;2022-12-10T11:07:34;93426.88;;;15.02;75.06
11692;BME280;33659;42.672;23.354;2022-12-10T11:10:03;93412.22;;;15.08;74.60
11692;BME280;33659;42.672;23.354;2022-12-10T11:12:35;93405.81;;;15.09;75.33
11692;BME280;33659;42.672;23.354;2022-12-10T11:15:28;93399.06;;;15.08;75.42
11692;BME280;33659;42.672;23.354;2022-12-10T11:17:55;93380.31;;;15.03;75.85
11692;BME280;33659;42.672;23.354;2022-12-10T11:20:24;93378.06;;;15.01;76.15
11692;BME280;33659;42.672;23.354;2022-12-10T11:22:54;93376.91;;;15.06;76.15
11692;BME280;33659;42.672;23.354;2022-12-10T11:25:33;93369.75;;;15.06;76.29
11692;BME280;33659;42.672;23.354;2022-12-10T11:28:14;93357.75;;;15.05;76.63
11692;BME280;33659;42.672;23.354;2022-12-10T11:30:49;93358.50;;;15.09;76.39
11692;BME280;33659;42.672;23.354;2022-12-10T11:33:22;93353.22;;;15.13;76.24
11692;BME280;33659;42.672;23.354;2022-12-10T11:35:59;93363.75;;;15.16;76.05
11692;BME280;33659;42.672;23.354;2022-12-10T11:38:31;93365.22;;;15.17;76.39
11692;BME280;33659;42.672;23.354;2022-12-10T11:41:05;93364.50;;;15.21;76.29
11692;BME280;33659;42.672;23.354;2022-12-10T11:43:47;93355.44;;;15.25;75.95
11692;BME280;33659;42.672;23.354;2022-12-10T11:46:32;93365.97;;;15.29;75.78
11692;BME280;33659;42.672;23.354;2022-12-10T11:49:17;93366.34;;;15.24;76.09
11692;BME280;33659;42.672;23.354;2022-12-10T11:51:54;93365.25;;;15.10;76.39
11692;BME280;33659;42.672;23.354;2022-12-10T11:54:43;93358.13;;;15.00;76.81
11692;BME280;33659;42.672;23.354;2022-12-10T11:57:20;93345.38;;;14.92;77.32
11692;BME280;33659;42.672;23.354;2022-12-10T11:59:55;93340.91;;;14.85;77.38
11692;BME280;33659;42.672;23.354;2022-12-10T12:02:39;93345.03;;;14.82;77.57
11692;BME280;33659;42.672;23.354;2022-12-10T12:08:09;93340.16;;;14.74;78.34
11692;BME280;33659;42.672;23.354;2022-12-10T12:11:08;93334.53;;;14.68;78.74
11692;BME280;33659;42.672;23.354;2022-12-10T12:13:43;93329.31;;;14.54;79.36
11692;BME280;33659;42.672;23.354;2022-12-10T12:16:16;93339.06;;;14.50;79.63
11692;BME280;33659;42.672;23.354;2022-12-10T12:18:48;93330.03;;;14.44;79.55
11692;BME280;33659;42.672;23.354;2022-12-10T12:21:18;93330.03;;;14.40;80.12
11692;BME280;33659;42.672;23.354;2022-12-10T12:23:50;93326.28;;;14.41;80.28
11692;BME280;33659;42.672;23.354;2022-12-10T12:26:24;93313.16;;;14.38;80.40
11692;BME280;33659;42.672;23.354;2022-12-10T12:28:58;93308.28;;;14.40;80.40
11692;BME280;33659;42.672;23.354;2022-12-10T12:31:31;93305.25;;;14.41;80.44
11692;BME280;33659;42.672;23.354;2022-12-10T12:34:03;93303.03;;;14.43;80.40
11692;BME280;33659;42.672;23.354;2022-12-10T12:36:33;93293.25;;;14.40;80.20
11692;BME280;33659;42.672;23.354;2022-12-10T12:39:05;93285.41;;;14.47;79.93
11692;BME280;33659;42.672;23.354;2022-12-10T12:41:45;93282.78;;;14.47;79.82
11692;BME280;33659;42.672;23.354;2022-12-10T12:44:19;93276.03;;;14.46;80.09
11692;BME280;33659;42.672;23.354;2022-12-10T12:46:50;93277.13;;;14.42;79.96
11692;BME280;33659;42.672;23.354;2022-12-10T12:49:23;93269.25;;;14.42;80.24
11692;BME280;33659;42.672;23.354;2022-12-10T12:51:54;93276.03;;;14.43;80.20
11692;BME280;33659;42.672;23.354;2022-12-10T12:54:22;93279.41;;;14.43;80.25
11692;BME280;33659;42.672;23.354;2022-12-10T12:57:04;93246.75;;;14.26;80.39
11692;BME280;33659;42.672;23.354;2022-12-10T12:59:45;93267.75;;;14.44;80.36
11692;BME280;33659;42.672;23.354;2022-12-10T13:02:35;93270.00;;;14.46;80.11
11692;BME280;33659;42.672;23.354;2022-12-10T13:05:13;93225.75;;;14.30;80.16
11692;BME280;33659;42.672;23.354;2022-12-10T13:07:40;93251.59;;;14.42;80.46